ACT        NSW        VIC        QLD        SA        WA        TAS        NT        INFO        CALC            by VK5ZD

  Atmospheric Gas Attenuation - ITU Rec 676-11   --------------- db/100km ---------------
Station Date Time Temp RH % AH g/m3 Dew Point Wind Direction Speed kph Gust kph Barometer mB Rainfall Since 9am 24GHz 47GHz 76GHz 122GHz 134GHz 241GHz
Adelaide (Kent Town) 17 01:20 6.3 94 6.96 5.4 0 0 1021.7 0 16.4 25.7 37.1 97.0 85.8 293.4
Adelaide (West Terrace / Ngayirdapira) 17 01:20 9.9 84 7.85 7.3 7 9 1021.5 0 18.2 26.1 39.0 102.3 93.8 321.9
Adelaide Airport 17 01:20 5.6 97 6.86 5.1 9 9 1021.5 0 16.2 25.7 37.0 96.7 85.2 291.1
Arkaroola 16 15:00 18.8 40 6.44 5 9 1013.1 0 14.8 21.3 29.6 77.3 66.7 227.9
Cape Borda 17 01:20 10.9 96 9.55 10.3 19 22 1020.9 0 21.8 28.7 45.7 120.1 116.2 400.2
Cape Jaffa 17 01:20 6.6 93 7.02 5.5 11 13 1013.1 0 16.5 25.4 36.8 96.4 85.7 293.0
Cape Willoughby 17 01:20 12.1 86 9.22 9.8 19 20 1013.1 0 21.0 27.4 43.2 113.6 109.1 375.5
Ceduna 17 01:20 5.2 85 5.86 2.9 9 11 1019.7 0 14.1 24.1 32.9 85.9 71.8 244.2
Clare 17 01:20 3.5 99 6.09 3.4 0 0 1021.7 0 14.6 25.0 34.7 90.6 76.7 261.1
Cleve Airport 17 01:20 9.6 76 6.96 5.6 9 9 1020.4 0 16.3 24.7 35.5 92.9 82.2 281.0
Coober Pedy Airport 17 01:20 8 51 4.22 -1.5 20 20 1021.3 0 10.5 20.9 25.7 66.5 49.0 164.1
Coonawarra 17 01:20 5.3 89 6.17 3.6 9 11 1022.8 0 14.7 24.7 34.3 89.5 76.1 259.2
Cultana (Defence) 17 01:20 10.5 58 5.63 2.6 15 17 1013.1 0 13.4 22.1 29.7 77.5 63.9 217.1
Cummins Airport 17 01:20 8 100 8.27 8 6 6 1020.4 0.2 19.2 27.4 41.8 109.5 102.0 350.3
Edinburgh 17 01:20 5.8 91 6.52 4.4 11 13 1021.9 0 15.5 25.1 35.5 92.7 80.3 274.0
Edithburgh 17 01:00 7 100 7.75 7 4 4 1021.5 0 18.1 26.8 40.1 105.0 96.0 329.2
Ernabella/Pukatja 17 01:20 6.2 50 3.68 -3.4 13 13 1021.1 0 9.4 20.5 24.3 62.7 43.5 144.7
Hindmarsh Island 17 01:20 7.1 88 6.87 5.3 13 13 1022.1 0 16.2 25.3 36.4 95.0 83.7 286.2
Kadina 17 01:20 3.4 96 5.87 2.8 11 11 1021.3 0 14.2 24.7 33.8 88.2 73.8 250.7
Keith West 17 01:20 2.3 99 5.62 2.1 0 0 1013.1 0 13.7 24.2 32.9 85.9 70.8 240.3
Kingscote 17 01:20 1.4 95 5.07 0.7 0 0 1021.4 0.2 12.5 23.9 31.3 81.5 64.6 218.2
Kuitpo 17 01:20 7.5 100 8.01 7.5 17 20 1020.4 0.2 18.6 27.1 40.9 107.2 99.0 339.6
Kyancutta 16 15:00 18.4 62 9.75 11.1 4 1021.7 0 21.8 26.7 42.4 111.3 108.1 372.9
Lameroo Aws 17 01:20 3.3 92 5.59 2.1 11 11 1013.1 0 13.6 23.9 32.3 84.4 69.5 235.9
Leigh Creek 17 01:20 6.1 65 4.75 0 9 9 1022 0 11.7 22.2 28.3 73.6 56.8 191.4
Loxton 17 01:20 1 94 4.88 0.2 0 0 1023 0 12.1 23.7 30.7 80.0 62.4 210.5
Marree Airport 17 01:20 5.5 45 3.16 -5.5 4 6 1022.3 0 8.3 19.9 22.6 58.3 37.7 124.2
Minlaton Airport 17 01:20 7.4 96 7.64 6.8 19 20 1020.9 0.2 17.8 26.5 39.4 103.2 93.9 321.9
Minnipa Rs 17 01:20 11 49 4.91 0.7 19 20 1020.6 0 11.8 21.2 27.2 70.6 55.2 186.6
Moomba Airport 17 01:20 6.6 58 4.38 -1.1 9 9 1021.9 0 10.9 21.5 26.7 69.4 51.8 174.0
Mount Crawford 17 01:20 7.8 100 8.16 7.8 19 20 1021.5 0 18.9 27.3 41.4 108.6 100.8 346.0
Mount Gambier 17 01:20 2.8 94 5.52 1.9 6 7 1023 0 13.4 24.3 32.7 85.2 69.6 236.0
Mount Lofty 17 01:20 8.3 86 7.25 6.1 7 11 1013.1 0 16.9 25.3 37.0 96.9 86.9 297.6
Naracoorte 17 01:20 6.4 89 6.64 4.7 15 17 1022.7 0 15.7 25.2 35.7 93.4 81.4 277.8
Noarlunga 17 01:20 9.5 90 8.19 7.9 11 13 1013.1 0 18.9 26.5 40.3 105.7 98.3 337.7
Nullarbor 17 01:20 12.4 38 4.15 -1.5 22 26 1018.4 0.2 10.2 19.7 24.0 62.2 45.4 152.3
Nuriootpa 17 01:00 3.7 100 6.24 3.7 7 9 1022.8 0 15.0 25.3 35.3 92.2 78.7 267.9
Oodnadatta 17 01:20 6.6 50 3.78 -3.1 7 7 1021.5 0 9.6 20.6 24.5 63.4 44.5 148.2
Padthaway 17 01:20 7.8 81 6.61 4.7 9 13 1013.1 0 15.6 24.4 34.6 90.5 78.9 269.3
Pallamana 17 01:20 4 99 6.3 3.8 0 0 1023 0 15.1 25.3 35.4 92.5 79.2 269.9
Parafield 16 23:30 5.3 100 6.94 5.3 6 7 1022.7 0 16.4 26.0 37.5 98.1 86.8 296.4
Parawa West 17 01:20 7.1 97 7.57 6.6 4 4 1013.1 0 17.7 26.1 38.9 101.9 92.7 317.7
Parndana 17 01:20 7.5 95 7.61 6.7 6 6 1013.1 0 17.8 26.1 38.9 101.9 92.8 318.0
Point Avoid 17 01:20 9.3 97 8.72 8.8 15 19 1013.1 0 20.1 27.4 42.6 112.0 106.0 364.5
Port Augusta 17 01:20 6.1 82 5.99 3.3 6 7 1021.6 0 14.3 24.1 33.2 86.5 72.9 247.8
Port Lincoln Airport 17 01:20 6.2 97 7.14 5.8 0 0 1020.7 0.2 16.8 26.0 37.8 99.0 88.4 302.2
Port Pirie Airport Aws 17 01:20 3.7 91 5.68 2.4 11 11 1021.4 0 13.7 24.3 32.9 85.8 70.9 240.6
Renmark Airport 17 01:20 0.7 86 4.38 -1.4 0 0 1022.7 0 11.0 23.0 28.8 74.8 55.9 187.5
Robe Airport 17 01:20 3.1 100 5.99 3.1 7 7 1013.1 0 14.4 24.6 34.1 89.1 75.2 255.7
Roseworthy 17 01:20 7.2 94 7.38 6.3 20 24 1021.3 0 17.3 26.1 38.4 100.5 90.6 310.2
Roxby Downs 17 01:20 4.3 70 4.54 -0.7 0 0 1021.7 0 11.3 22.3 28.1 73.0 55.4 186.2
Snowtown 17 01:20 3.5 91 5.6 2.2 11 11 1021.6 0 13.6 24.2 32.7 85.1 70.0 237.5
Stenhouse Bay 17 01:20 10.3 91 8.72 8.9 7 11 1013.1 0 20.0 27.1 42.1 110.6 104.6 359.8
Strathalbyn 17 01:20 6 97 7.04 5.6 11 13 1022.1 0 16.6 25.9 37.6 98.3 87.3 298.5
Tarcoola 17 01:20 7.2 49 3.85 -2.8 13 13 1021.3 0 9.7 20.5 24.6 63.6 45.0 150.1
Whyalla 17 01:20 4.5 96 6.32 3.9 9 11 1021.3 0 15.1 25.1 35.2 92.0 78.9 268.7
Woomera 17 01:20 7.5 57 4.56 -0.5 9 11 1021.6 0 11.2 21.5 27.1 70.3 53.4 179.8
Wudinna Airport 17 01:20 11.6 55 5.72 2.9 20 22 1020.2 0 13.5 22.2 29.9 77.9 64.5 219.3
Yunta 17 01:20 1.7 63 3.43 -4.6 0 0 1013.1 0 9.0 20.9 24.4 63.2 42.5 140.8

Last Refresh: 17-Jul-2020 01:35:28

The information presented on this site is sourced from the Bureau of Meteorology.  Copyright in all material sourced from the Bureau of Meteorology resides with the Commonwealth of Australia.